Time;durP1;ratioP1;P1;durP2;ratioP2;P2;SDS_P1;SDS_P2;PMS_P1;PMS_P2;Temp;Humidity;BMP_temperature;BMP_pressure;BME280_temperature;BME280_humidity;BME280_pressure;Samples;Min_cycle;Max_cycle;Signal;HPM_P1;HPM_P2
2021/08/05 00:01:47;;;;;;;4.93;1.45;;;;;;;;;;4998115;28;20042;-82
2021/08/05 00:04:14;;;;;;;2.97;0.90;;;;;;;;;;4999697;28;20050;-82
2021/08/05 00:06:41;;;;;;;3.33;0.85;;;;;;;;;;4998651;28;20046;-82
2021/08/05 00:09:08;;;;;;;2.13;1.20;;;;;;;;;;5000358;28;20054;-83
2021/08/05 00:11:34;;;;;;;1.80;0.90;;;;;;;;;;5000374;28;20043;-83
2021/08/05 00:14:01;;;;;;;2.28;1.10;;;;;;;;;;4999641;28;20069;-82
2021/08/05 00:16:28;;;;;;;3.08;1.60;;;;;;;;;;4981191;28;20108;-82
2021/08/05 00:18:56;;;;;;;3.53;1.20;;;;;;;;;;4994729;28;20062;-81
2021/08/05 00:21:23;;;;;;;1.98;1.00;;;;;;;;;;4995931;28;20538;-81
2021/08/05 00:23:50;;;;;;;2.92;1.20;;;;;;;;;;4995220;28;20473;-82
2021/08/05 00:26:17;;;;;;;2.53;0.95;;;;;;;;;;5011073;28;20047;-82
2021/08/05 00:28:44;;;;;;;1.60;0.80;;;;;;;;;;4996166;28;20066;-81
2021/08/05 00:31:11;;;;;;;3.40;1.17;;;;;;;;;;4994673;28;20077;-82
2021/08/05 00:33:38;;;;;;;1.95;1.27;;;;;;;;;;4995856;28;20057;-81
2021/08/05 00:36:06;;;;;;;3.80;1.73;;;;;;;;;;4996175;28;20053;-81
2021/08/05 00:38:33;;;;;;;2.63;1.17;;;;;;;;;;4996277;28;20407;-81
2021/08/05 00:40:59;;;;;;;3.30;1.50;;;;;;;;;;4996201;28;20050;-82
2021/08/05 00:43:26;;;;;;;2.95;1.25;;;;;;;;;;4996274;28;20050;-82
2021/08/05 00:45:52;;;;;;;3.05;1.35;;;;;;;;;;4996040;28;20046;-82
2021/08/05 00:48:19;;;;;;;6.43;1.35;;;;;;;;;;4996241;28;20411;-81
2021/08/05 00:50:46;;;;;;;2.08;1.00;;;;;;;;;;4996055;28;20051;-81
2021/08/05 00:53:15;;;;;;;2.72;1.48;;;;;;;;;;4996513;28;20057;-81
2021/08/05 00:55:42;;;;;;;3.47;1.42;;;;;;;;;;4995943;28;20056;-81
2021/08/05 00:58:08;;;;;;;3.75;1.27;;;;;;;;;;4994640;28;20073;-82
2021/08/05 01:00:35;;;;;;;8.25;1.77;;;;;;;;;;4994769;28;20050;-81
2021/08/05 01:03:06;;;;;;;3.45;0.98;;;;;;;;;;4995873;28;20093;-82
2021/08/05 01:05:37;;;;;;;3.88;1.10;;;;;;;;;;4996067;28;20052;-82
2021/08/05 01:08:07;;;;;;;3.17;1.20;;;;;;;;;;4996305;28;20050;-82
2021/08/05 01:10:42;;;;;;;2.05;1.02;;;;;;;;;;4983388;28;20046;-81
2021/08/05 01:13:12;;;;;;;2.60;1.00;;;;;;;;;;4996766;28;20053;-81
2021/08/05 01:15:39;;;;;;;3.38;1.00;;;;;;;;;;4996647;28;20054;-81
2021/08/05 01:18:15;;;;;;;3.55;1.08;;;;;;;;;;4995874;28;20061;-81
2021/08/05 01:20:43;;;;;;;2.83;0.93;;;;;;;;;;4996050;28;20404;-81
2021/08/05 01:23:24;;;;;;;1.92;0.90;;;;;;;;;;4996545;28;20050;-81
2021/08/05 01:25:58;;;;;;;3.03;0.82;;;;;;;;;;4996246;28;20515;-82
2021/08/05 01:28:26;;;;;;;2.42;1.10;;;;;;;;;;4997036;28;20042;-82
2021/08/05 01:30:53;;;;;;;2.55;1.30;;;;;;;;;;4996979;28;20047;-82
2021/08/05 01:33:22;;;;;;;1.88;1.00;;;;;;;;;;4996082;28;20050;-82
2021/08/05 01:35:49;;;;;;;4.95;1.42;;;;;;;;;;4995776;28;20069;-82
2021/08/05 01:38:16;;;;;;;3.45;2.08;;;;;;;;;;4995836;28;20053;-82
2021/08/05 01:40:44;;;;;;;3.03;1.30;;;;;;;;;;4996957;28;20053;-82
2021/08/05 01:43:11;;;;;;;3.08;1.70;;;;;;;;;;4996796;28;20050;-81
2021/08/05 01:45:40;;;;;;;3.75;1.42;;;;;;;;;;4995100;28;20407;-81
2021/08/05 01:48:09;;;;;;;3.38;1.42;;;;;;;;;;4996606;28;20046;-82
2021/08/05 01:50:36;;;;;;;2.33;1.30;;;;;;;;;;4996210;28;20091;-82
2021/08/05 01:53:04;;;;;;;5.03;1.40;;;;;;;;;;4995996;28;20499;-82
2021/08/05 01:55:31;;;;;;;2.03;1.17;;;;;;;;;;4995931;28;20050;-82
2021/08/05 01:57:58;;;;;;;3.05;1.50;;;;;;;;;;4995359;28;20046;-82
2021/08/05 02:00:25;;;;;;;5.22;1.35;;;;;;;;;;4997010;28;20050;-81
2021/08/05 02:02:54;;;;;;;4.35;1.50;;;;;;;;;;4996560;28;20050;-82
2021/08/05 02:05:24;;;;;;;4.72;2.10;;;;;;;;;;4997045;28;20046;-82
2021/08/05 02:07:54;;;;;;;4.50;1.45;;;;;;;;;;4997019;28;20057;-82
2021/08/05 02:10:23;;;;;;;2.33;1.08;;;;;;;;;;4995880;28;20054;-82
2021/08/05 02:12:53;;;;;;;3.38;1.75;;;;;;;;;;4996062;28;20487;-82
2021/08/05 02:15:20;;;;;;;7.15;2.80;;;;;;;;;;4996029;28;20057;-82
2021/08/05 02:17:46;;;;;;;3.47;1.23;;;;;;;;;;4996369;28;20046;-83
2021/08/05 02:20:14;;;;;;;4.47;1.40;;;;;;;;;;4996556;28;20050;-82
2021/08/05 02:22:44;;;;;;;2.75;1.48;;;;;;;;;;4996357;28;20047;-81
2021/08/05 02:25:12;;;;;;;4.95;1.40;;;;;;;;;;4996903;28;20054;-82
2021/08/05 02:27:40;;;;;;;4.60;1.65;;;;;;;;;;4988987;28;20061;-82
2021/08/05 02:30:08;;;;;;;3.45;1.35;;;;;;;;;;4996233;28;20057;-82
2021/08/05 02:32:35;;;;;;;2.03;1.02;;;;;;;;;;4996465;28;20054;-83
2021/08/05 02:35:04;;;;;;;3.60;1.20;;;;;;;;;;4996729;28;20054;-83
2021/08/05 02:37:32;;;;;;;9.27;1.50;;;;;;;;;;4997601;28;20047;-82
2021/08/05 02:39:59;;;;;;;4.50;1.60;;;;;;;;;;4996792;28;20055;-82
2021/08/05 02:42:25;;;;;;;2.63;1.70;;;;;;;;;;4999075;28;20418;-82
2021/08/05 02:44:52;;;;;;;2.85;1.20;;;;;;;;;;5004824;28;20047;-82
2021/08/05 02:47:19;;;;;;;2.38;1.10;;;;;;;;;;5004224;28;20050;-83
2021/08/05 02:49:47;;;;;;;2.70;1.33;;;;;;;;;;5003563;28;20050;-82
2021/08/05 02:52:14;;;;;;;5.07;2.45;;;;;;;;;;5003873;28;20061;-83
2021/08/05 02:54:42;;;;;;;3.55;1.35;;;;;;;;;;5004021;28;20054;-82
2021/08/05 02:57:09;;;;;;;2.95;1.25;;;;;;;;;;5004238;28;20138;-83
2021/08/05 02:59:35;;;;;;;3.80;1.42;;;;;;;;;;5003747;28;20061;-83
2021/08/05 03:02:02;;;;;;;4.13;1.42;;;;;;;;;;5004208;28;20043;-82
2021/08/05 03:04:31;;;;;;;2.30;1.05;;;;;;;;;;4987256;28;20053;-83
2021/08/05 03:06:58;;;;;;;4.68;1.27;;;;;;;;;;5003102;28;20053;-82
2021/08/05 03:09:24;;;;;;;5.57;1.83;;;;;;;;;;4991340;28;20050;-83
2021/08/05 03:11:52;;;;;;;4.35;1.80;;;;;;;;;;5005131;28;20059;-82
2021/08/05 03:14:19;;;;;;;3.63;1.33;;;;;;;;;;5004086;28;20058;-82
2021/08/05 03:16:47;;;;;;;4.30;2.20;;;;;;;;;;5005344;28;20334;-83
2021/08/05 03:19:13;;;;;;;3.17;1.80;;;;;;;;;;5004047;28;20065;-83
2021/08/05 03:21:40;;;;;;;2.42;0.98;;;;;;;;;;5003511;28;20407;-82
2021/08/05 03:24:07;;;;;;;3.05;1.92;;;;;;;;;;5005409;28;20056;-83
2021/08/05 03:26:33;;;;;;;3.30;1.40;;;;;;;;;;5003632;28;20046;-84
2021/08/05 03:29:01;;;;;;;2.80;1.45;;;;;;;;;;5003620;28;20061;-82
2021/08/05 03:31:28;;;;;;;2.17;1.02;;;;;;;;;;5005461;28;20134;-84
2021/08/05 03:33:54;;;;;;;2.25;1.02;;;;;;;;;;5003696;28;20042;-83
2021/08/05 03:36:21;;;;;;;5.32;1.42;;;;;;;;;;5005655;28;20046;-83
2021/08/05 03:38:47;;;;;;;4.43;1.73;;;;;;;;;;5006098;28;20053;-83
2021/08/05 03:41:14;;;;;;;4.13;1.63;;;;;;;;;;5004517;28;20046;-83
2021/08/05 03:43:41;;;;;;;3.15;1.77;;;;;;;;;;5004883;28;20046;-84
2021/08/05 03:46:08;;;;;;;3.20;1.33;;;;;;;;;;5004900;28;20411;-84
2021/08/05 03:48:35;;;;;;;5.82;1.75;;;;;;;;;;5000374;28;20053;-84
2021/08/05 03:51:03;;;;;;;3.05;1.67;;;;;;;;;;4997838;28;20042;-82
2021/08/05 03:53:29;;;;;;;4.15;1.40;;;;;;;;;;4999923;28;20101;-83
2021/08/05 03:55:56;;;;;;;5.30;1.40;;;;;;;;;;4998849;28;20096;-84
2021/08/05 03:58:23;;;;;;;4.28;1.33;;;;;;;;;;4998308;28;20082;-82
2021/08/05 04:00:49;;;;;;;2.40;1.27;;;;;;;;;;4991760;28;20047;-82
2021/08/05 04:03:17;;;;;;;2.90;1.52;;;;;;;;;;4992680;28;20580;-83
2021/08/05 04:05:44;;;;;;;3.50;1.30;;;;;;;;;;4996410;28;20483;-82
2021/08/05 04:08:10;;;;;;;3.47;1.77;;;;;;;;;;4986534;28;20043;-83
2021/08/05 04:10:37;;;;;;;5.20;1.40;;;;;;;;;;4988335;28;20092;-82
2021/08/05 04:13:03;;;;;;;2.53;1.75;;;;;;;;;;4994041;28;20042;-82
2021/08/05 04:15:30;;;;;;;2.00;1.10;;;;;;;;;;4981649;28;20054;-82
2021/08/05 04:17:56;;;;;;;2.72;1.35;;;;;;;;;;4984700;28;20039;-82
2021/08/05 04:20:24;;;;;;;3.13;1.42;;;;;;;;;;4992748;28;20490;-82
2021/08/05 04:22:50;;;;;;;3.45;1.67;;;;;;;;;;4991210;28;20054;-82
2021/08/05 04:25:17;;;;;;;3.13;1.58;;;;;;;;;;4983298;28;20391;-82
2021/08/05 04:27:44;;;;;;;6.20;1.50;;;;;;;;;;4992351;28;20049;-82
2021/08/05 04:30:13;;;;;;;2.15;1.63;;;;;;;;;;4989952;28;20073;-82
2021/08/05 04:32:40;;;;;;;3.58;1.75;;;;;;;;;;4990925;28;20384;-82
2021/08/05 04:35:08;;;;;;;2.72;1.15;;;;;;;;;;4986059;28;20277;-83
2021/08/05 04:37:36;;;;;;;3.38;1.45;;;;;;;;;;4992622;28;20567;-82
2021/08/05 04:40:04;;;;;;;3.13;1.42;;;;;;;;;;4989988;28;20049;-81
2021/08/05 04:42:30;;;;;;;2.92;1.52;;;;;;;;;;4989222;28;20054;-82
2021/08/05 04:44:57;;;;;;;5.53;1.55;;;;;;;;;;4992740;28;20053;-82
2021/08/05 04:47:23;;;;;;;1.98;1.30;;;;;;;;;;4989350;28;20047;-83
2021/08/05 04:49:50;;;;;;;3.10;1.33;;;;;;;;;;4992130;28;20518;-82
2021/08/05 04:52:17;;;;;;;3.50;1.27;;;;;;;;;;4995626;28;20042;-82
2021/08/05 04:54:44;;;;;;;3.38;1.52;;;;;;;;;;4996218;28;20046;-82
2021/08/05 04:57:11;;;;;;;2.35;1.23;;;;;;;;;;4996131;28;20054;-82
2021/08/05 04:59:37;;;;;;;4.90;1.13;;;;;;;;;;4996604;28;20053;-82
2021/08/05 05:02:04;;;;;;;3.00;1.50;;;;;;;;;;4997149;28;20053;-82
2021/08/05 05:04:31;;;;;;;3.42;1.10;;;;;;;;;;4996028;28;20057;-82
2021/08/05 05:06:57;;;;;;;2.17;1.23;;;;;;;;;;4986006;28;20050;-82
2021/08/05 05:09:24;;;;;;;2.15;1.35;;;;;;;;;;4988840;28;20053;-83
2021/08/05 05:11:52;;;;;;;4.22;1.50;;;;;;;;;;4988798;28;20057;-83
2021/08/05 05:14:18;;;;;;;6.07;1.30;;;;;;;;;;4995862;28;20043;-82
2021/08/05 05:16:45;;;;;;;4.88;1.40;;;;;;;;;;4988768;28;20427;-82
2021/08/05 05:19:11;;;;;;;4.57;1.88;;;;;;;;;;4981372;28;20049;-82
2021/08/05 05:21:38;;;;;;;3.72;1.88;;;;;;;;;;4993317;28;20045;-82
2021/08/05 05:24:05;;;;;;;5.40;1.52;;;;;;;;;;4990618;28;20046;-82
2021/08/05 05:26:31;;;;;;;3.03;1.33;;;;;;;;;;4975738;28;20065;-82
2021/08/05 05:28:59;;;;;;;2.63;1.05;;;;;;;;;;4976310;28;20057;-82
2021/08/05 05:31:26;;;;;;;5.47;1.13;;;;;;;;;;4984564;28;20050;-82
2021/08/05 05:33:52;;;;;;;2.42;1.48;;;;;;;;;;4995812;28;20046;-81
2021/08/05 05:36:19;;;;;;;3.92;1.50;;;;;;;;;;4995413;28;20058;-82
2021/08/05 05:38:45;;;;;;;2.88;1.40;;;;;;;;;;4995145;28;20042;-82
2021/08/05 05:41:12;;;;;;;3.90;1.52;;;;;;;;;;4995090;28;20043;-83
2021/08/05 05:43:38;;;;;;;3.58;1.45;;;;;;;;;;4996048;28;20042;-82
2021/08/05 05:46:06;;;;;;;2.00;1.30;;;;;;;;;;4994436;28;20053;-84
2021/08/05 05:48:33;;;;;;;3.03;1.40;;;;;;;;;;4993694;28;20069;-82
2021/08/05 05:51:00;;;;;;;4.85;1.23;;;;;;;;;;4995437;28;20053;-82
2021/08/05 05:53:26;;;;;;;2.28;1.60;;;;;;;;;;4996043;28;20129;-82
2021/08/05 05:55:53;;;;;;;3.65;1.70;;;;;;;;;;4996158;28;20046;-82
2021/08/05 05:58:21;;;;;;;4.47;2.58;;;;;;;;;;4997426;28;20046;-83
2021/08/05 06:00:48;;;;;;;3.10;1.70;;;;;;;;;;4996498;28;20043;-83
2021/08/05 06:03:17;;;;;;;5.15;1.65;;;;;;;;;;4995383;28;20058;-83
2021/08/05 06:05:44;;;;;;;3.15;1.70;;;;;;;;;;4997112;28;20046;-83
2021/08/05 06:08:10;;;;;;;4.00;2.00;;;;;;;;;;4997185;28;20497;-84
2021/08/05 06:10:37;;;;;;;2.75;1.60;;;;;;;;;;4996704;28;20050;-82
2021/08/05 06:13:04;;;;;;;3.78;2.13;;;;;;;;;;4997253;28;20050;-83
2021/08/05 06:15:30;;;;;;;4.60;1.67;;;;;;;;;;4996189;28;20051;-83
2021/08/05 06:17:57;;;;;;;6.63;2.08;;;;;;;;;;4995883;28;20068;-84
2021/08/05 06:20:24;;;;;;;8.80;2.65;;;;;;;;;;4997306;28;20403;-84
2021/08/05 06:22:51;;;;;;;5.85;2.33;;;;;;;;;;4995709;28;20061;-83
2021/08/05 06:25:18;;;;;;;4.35;1.88;;;;;;;;;;4997751;28;20042;-84
2021/08/05 06:27:45;;;;;;;4.45;1.73;;;;;;;;;;4998318;28;20046;-83
2021/08/05 06:30:13;;;;;;;4.20;2.25;;;;;;;;;;4996807;28;20057;-83
2021/08/05 06:32:40;;;;;;;4.28;2.25;;;;;;;;;;4998095;28;20183;-83
2021/08/05 06:35:07;;;;;;;5.82;2.65;;;;;;;;;;4997900;28;20408;-83
2021/08/05 06:37:35;;;;;;;4.55;2.45;;;;;;;;;;4997894;28;20054;-84
2021/08/05 06:40:04;;;;;;;6.00;2.35;;;;;;;;;;4998592;28;20415;-84
2021/08/05 06:42:31;;;;;;;4.72;2.33;;;;;;;;;;5014115;28;20086;-84
2021/08/05 06:44:57;;;;;;;6.63;2.50;;;;;;;;;;4998344;28;20066;-84
2021/08/05 06:47:24;;;;;;;9.10;3.50;;;;;;;;;;4997546;28;20478;-84
2021/08/05 06:49:57;;;;;;;6.47;2.60;;;;;;;;;;5000235;28;20061;-83
2021/08/05 06:52:24;;;;;;;4.80;2.50;;;;;;;;;;5000441;28;20047;-84
2021/08/05 06:54:51;;;;;;;4.72;2.75;;;;;;;;;;4983440;28;20065;-84
2021/08/05 06:57:18;;;;;;;6.30;2.95;;;;;;;;;;5000683;28;20050;-84
2021/08/05 06:59:45;;;;;;;6.75;2.72;;;;;;;;;;4994628;28;20423;-83
2021/08/05 07:02:11;;;;;;;5.60;2.25;;;;;;;;;;4994567;28;20047;-83
2021/08/05 07:04:38;;;;;;;6.97;2.53;;;;;;;;;;4995239;28;20050;-83
2021/08/05 07:07:04;;;;;;;4.68;2.22;;;;;;;;;;4994268;28;20042;-83
2021/08/05 07:09:31;;;;;;;5.82;2.40;;;;;;;;;;4993564;28;20376;-83
2021/08/05 07:11:59;;;;;;;5.97;2.30;;;;;;;;;;4994069;28;20054;-83
2021/08/05 07:14:25;;;;;;;5.40;2.80;;;;;;;;;;4993257;28;20057;-83
2021/08/05 07:16:52;;;;;;;7.07;2.72;;;;;;;;;;4994157;28;20057;-83
2021/08/05 07:19:18;;;;;;;5.75;2.75;;;;;;;;;;4995853;28;20054;-83
2021/08/05 07:21:45;;;;;;;4.97;2.58;;;;;;;;;;4995071;28;20042;-83
2021/08/05 07:24:13;;;;;;;5.07;3.00;;;;;;;;;;4994760;28;20491;-83
2021/08/05 07:26:40;;;;;;;5.35;2.78;;;;;;;;;;4993862;28;20069;-83
2021/08/05 07:29:08;;;;;;;3.83;2.13;;;;;;;;;;4995151;28;20046;-84
2021/08/05 07:31:35;;;;;;;5.60;2.38;;;;;;;;;;4997680;28;20066;-85
2021/08/05 07:34:02;;;;;;;5.22;2.40;;;;;;;;;;4996284;28;20061;-83
2021/08/05 07:36:29;;;;;;;4.90;2.50;;;;;;;;;;4997103;28;20050;-84
2021/08/05 07:38:55;;;;;;;4.22;2.33;;;;;;;;;;4997063;28;20054;-83
2021/08/05 07:41:22;;;;;;;5.00;2.75;;;;;;;;;;4997408;28;20054;-83
2021/08/05 07:43:49;;;;;;;6.95;2.72;;;;;;;;;;4998205;28;20403;-83
2021/08/05 07:46:17;;;;;;;6.40;3.25;;;;;;;;;;4998197;28;20059;-83
2021/08/05 07:48:44;;;;;;;5.25;2.78;;;;;;;;;;4996491;28;20407;-84
2021/08/05 07:51:11;;;;;;;6.25;3.03;;;;;;;;;;5012295;28;20423;-84
2021/08/05 07:53:37;;;;;;;5.88;2.78;;;;;;;;;;4995860;28;20054;-83
2021/08/05 07:56:05;;;;;;;32.55;4.40;;;;;;;;;;4996452;28;20050;-83
2021/08/05 07:58:32;;;;;;;4.57;2.40;;;;;;;;;;4980372;28;20402;-83
2021/08/05 08:00:59;;;;;;;6.57;2.88;;;;;;;;;;4979660;28;20053;-84
2021/08/05 08:03:27;;;;;;;4.82;2.50;;;;;;;;;;4994956;28;20418;-84
2021/08/05 08:05:53;;;;;;;5.82;3.30;;;;;;;;;;4997934;28;20058;-85
2021/08/05 08:08:20;;;;;;;5.50;3.08;;;;;;;;;;4997612;28;20049;-84
2021/08/05 08:10:47;;;;;;;5.18;3.03;;;;;;;;;;4996537;28;20054;-84
2021/08/05 08:13:14;;;;;;;5.30;3.53;;;;;;;;;;4996192;28;20418;-84
2021/08/05 08:15:40;;;;;;;4.55;2.65;;;;;;;;;;4997565;28;20054;-83
2021/08/05 08:18:07;;;;;;;5.45;2.83;;;;;;;;;;4997907;28;20055;-84
2021/08/05 08:20:36;;;;;;;4.93;3.38;;;;;;;;;;4997596;28;20054;-85
2021/08/05 08:23:04;;;;;;;4.80;2.90;;;;;;;;;;4996530;28;20042;-84
2021/08/05 08:25:31;;;;;;;7.43;3.28;;;;;;;;;;4995222;28;20058;-84
2021/08/05 08:27:58;;;;;;;5.82;3.20;;;;;;;;;;4995614;28;20080;-84
2021/08/05 08:30:25;;;;;;;6.00;2.92;;;;;;;;;;4997171;28;20050;-84
2021/08/05 08:32:52;;;;;;;5.10;3.03;;;;;;;;;;4996525;28;20047;-85
2021/08/05 08:35:19;;;;;;;5.65;2.97;;;;;;;;;;4998252;28;20403;-84
2021/08/05 08:37:47;;;;;;;4.40;3.13;;;;;;;;;;4991978;28;20055;-85
2021/08/05 08:40:15;;;;;;;5.00;2.80;;;;;;;;;;4996142;28;20058;-85
2021/08/05 08:42:43;;;;;;;3.83;2.80;;;;;;;;;;4996388;28;20049;-85
2021/08/05 08:45:11;;;;;;;4.30;2.90;;;;;;;;;;4996788;28;20499;-84
2021/08/05 08:47:40;;;;;;;5.55;2.47;;;;;;;;;;4996149;28;20117;-85
2021/08/05 08:50:11;;;;;;;6.13;3.10;;;;;;;;;;4996198;28;20046;-85
2021/08/05 08:52:41;;;;;;;4.60;2.38;;;;;;;;;;4996925;28;20054;-85
2021/08/05 08:55:11;;;;;;;7.45;2.97;;;;;;;;;;4978820;28;20108;-85
2021/08/05 08:57:38;;;;;;;6.22;2.35;;;;;;;;;;4995916;28;20125;-85
2021/08/05 09:00:06;;;;;;;5.45;2.50;;;;;;;;;;4994744;28;20054;-86
2021/08/05 09:02:33;;;;;;;4.22;2.22;;;;;;;;;;4994634;28;20116;-85
2021/08/05 09:05:00;;;;;;;5.22;2.67;;;;;;;;;;4995253;28;20047;-86
2021/08/05 09:07:27;;;;;;;6.13;2.53;;;;;;;;;;4995770;28;20101;-86
2021/08/05 09:09:54;;;;;;;4.00;2.33;;;;;;;;;;4990422;28;20055;-86
2021/08/05 09:12:22;;;;;;;4.75;2.72;;;;;;;;;;4993056;28;20069;-87
2021/08/05 09:14:50;;;;;;;4.25;2.25;;;;;;;;;;4996797;28;20042;-86
2021/08/05 09:17:24;;;;;;;4.97;2.63;;;;;;;;;;4980893;28;20046;-85
2021/08/05 09:19:53;;;;;;;3.70;2.30;;;;;;;;;;4980543;28;20054;-86
2021/08/05 09:22:33;;;;;;;4.97;2.50;;;;;;;;;;4997084;28;20050;-86
2021/08/05 09:25:00;;;;;;;4.28;1.90;;;;;;;;;;4998048;28;20471;-86
2021/08/05 09:27:35;;;;;;;5.28;2.80;;;;;;;;;;4996514;28;20050;-86
2021/08/05 09:30:04;;;;;;;6.45;2.22;;;;;;;;;;4997807;28;20065;-85
2021/08/05 09:32:31;;;;;;;5.30;2.00;;;;;;;;;;4980357;28;20051;-85
2021/08/05 09:35:06;;;;;;;6.30;2.08;;;;;;;;;;4996055;28;20062;-86
2021/08/05 09:37:37;;;;;;;3.55;1.92;;;;;;;;;;4996951;28;20046;-85
2021/08/05 09:40:10;;;;;;;2.95;1.45;;;;;;;;;;4997412;28;20505;-86
2021/08/05 09:42:38;;;;;;;2.95;1.60;;;;;;;;;;4998360;28;20046;-86
2021/08/05 09:45:07;;;;;;;3.42;2.42;;;;;;;;;;4998262;28;20753;-85
2021/08/05 09:47:41;;;;;;;4.88;2.67;;;;;;;;;;4998066;28;20081;-84
2021/08/05 09:50:11;;;;;;;4.20;2.43;;;;;;;;;;4997632;28;20050;-85
2021/08/05 09:52:38;;;;;;;5.88;2.75;;;;;;;;;;4994264;28;20298;-85
2021/08/05 09:55:06;;;;;;;3.75;2.65;;;;;;;;;;4997058;28;20050;-85
2021/08/05 09:57:35;;;;;;;3.63;2.00;;;;;;;;;;4990281;28;20047;-85
2021/08/05 10:00:05;;;;;;;4.57;2.30;;;;;;;;;;4985063;28;20046;-84
2021/08/05 10:02:40;;;;;;;8.13;2.42;;;;;;;;;;4997737;28;20404;-85
2021/08/05 10:05:10;;;;;;;5.47;2.50;;;;;;;;;;4994488;28;20125;-85
2021/08/05 10:07:41;;;;;;;5.80;2.63;;;;;;;;;;4983672;28;20491;-84
2021/08/05 10:10:08;;;;;;;11.27;2.88;;;;;;;;;;4995369;28;20047;-85
2021/08/05 10:12:35;;;;;;;3.55;2.35;;;;;;;;;;4990352;28;20055;-85
2021/08/05 10:15:10;;;;;;;3.78;1.80;;;;;;;;;;4994506;28;20053;-84
2021/08/05 10:17:37;;;;;;;5.88;2.45;;;;;;;;;;4991918;28;20038;-85
2021/08/05 10:20:07;;;;;;;2.80;1.90;;;;;;;;;;4995599;28;20045;-86
2021/08/05 10:22:34;;;;;;;3.00;2.05;;;;;;;;;;4993964;28;20487;-85
2021/08/05 10:25:01;;;;;;;4.68;1.70;;;;;;;;;;4998846;28;20042;-85
2021/08/05 10:27:28;;;;;;;1.88;1.50;;;;;;;;;;4993379;28;20051;-85
2021/08/05 10:29:55;;;;;;;5.15;1.90;;;;;;;;;;4997263;28;20042;-84
2021/08/05 10:32:23;;;;;;;3.72;1.48;;;;;;;;;;4981584;28;20100;-84
2021/08/05 10:34:51;;;;;;;3.80;1.95;;;;;;;;;;4985913;28;20046;-84
2021/08/05 10:37:18;;;;;;;3.00;1.85;;;;;;;;;;4996872;28;20047;-84
2021/08/05 10:39:46;;;;;;;4.38;1.60;;;;;;;;;;4999611;28;20047;-84
2021/08/05 10:42:14;;;;;;;3.60;1.40;;;;;;;;;;5000492;28;20465;-86
2021/08/05 10:44:41;;;;;;;2.28;1.50;;;;;;;;;;4993216;28;20046;-85
2021/08/05 10:47:10;;;;;;;2.05;1.42;;;;;;;;;;4995637;28;20484;-84
2021/08/05 10:49:38;;;;;;;3.38;1.38;;;;;;;;;;4991946;28;20680;-85
2021/08/05 10:52:05;;;;;;;2.72;1.40;;;;;;;;;;4993529;28;20479;-84
2021/08/05 10:54:52;;;;;;;3.30;1.98;;;;;;;;;;4993308;28;20109;-84
2021/08/05 10:57:20;;;;;;;2.53;1.13;;;;;;;;;;4994575;28;20096;-85
2021/08/05 11:00:01;;;;;;;2.90;1.30;;;;;;;;;;5001867;28;20048;-84
2021/08/05 11:02:46;;;;;;;2.40;0.90;;;;;;;;;;4996523;28;20129;-84
2021/08/05 11:05:42;;;;;;;3.07;1.30;;;;;;;;;;5005463;28;20038;-84
2021/08/05 11:08:26;;;;;;;2.38;1.15;;;;;;;;;;5004026;28;20053;-84
2021/08/05 11:11:26;;;;;;;2.05;1.08;;;;;;;;;;4989979;28;20073;-84
2021/08/05 11:14:26;;;;;;;2.53;1.15;;;;;;;;;;4986260;28;20098;-84
2021/08/05 11:17:02;;;;;;;4.57;1.30;;;;;;;;;;4995501;28;20048;-82
2021/08/05 11:19:30;;;;;;;2.75;0.98;;;;;;;;;;4996652;28;20042;-84
2021/08/05 11:21:58;;;;;;;7.57;2.15;;;;;;;;;;5004558;28;20042;-84
2021/08/05 11:24:54;;;;;;;31.95;3.03;;;;;;;;;;5005521;28;20054;-84
2021/08/05 11:27:21;;;;;;;;;;;;;;;;;;5005537;28;20050;-84
2021/08/05 11:29:48;;;;;;;2.50;1.17;;;;;;;;;;5006118;28;19929;-85
2021/08/05 11:32:38;;;;;;;4.65;1.25;;;;;;;;;;5005964;28;20073;-85
2021/08/05 11:35:06;;;;;;;4.20;1.80;;;;;;;;;;5006178;28;20482;-84
2021/08/05 11:37:35;;;;;;;41.00;3.80;;;;;;;;;;5008857;28;20061;-84
2021/08/05 11:40:05;;;;;;;7.88;1.70;;;;;;;;;;5008371;28;20046;-84
2021/08/05 11:42:31;;;;;;;6.00;1.42;;;;;;;;;;5008280;28;20137;-84
2021/08/05 11:45:09;;;;;;;6.78;1.80;;;;;;;;;;5001266;28;20050;-84
2021/08/05 11:47:41;;;;;;;9.15;1.55;;;;;;;;;;5001181;28;20047;-84
2021/08/05 11:50:19;;;;;;;6.03;1.52;;;;;;;;;;4992271;28;20050;-83
2021/08/05 11:52:48;;;;;;;8.68;1.45;;;;;;;;;;5000985;28;20078;-83
2021/08/05 11:55:16;;;;;;;2.90;1.10;;;;;;;;;;5001767;28;20513;-83
2021/08/05 11:57:43;;;;;;;3.92;1.00;;;;;;;;;;5002332;28;20050;-83
2021/08/05 12:00:13;;;;;;;1.85;1.00;;;;;;;;;;5001849;28;20047;-83
2021/08/05 12:02:40;;;;;;;1.08;0.80;;;;;;;;;;5002782;28;20042;-84
2021/08/05 12:05:08;;;;;;;3.38;0.85;;;;;;;;;;4999812;28;20051;-84
2021/08/05 12:07:36;;;;;;;2.15;0.90;;;;;;;;;;5002543;28;20050;-83
2021/08/05 12:10:10;;;;;;;1.90;0.65;;;;;;;;;;5002357;28;20038;-85
2021/08/05 12:12:39;;;;;;;1.92;1.13;;;;;;;;;;5001076;28;20042;-83
2021/08/05 12:15:07;;;;;;;2.10;0.85;;;;;;;;;;4999502;28;20050;-84
2021/08/05 12:17:37;;;;;;;2.58;1.38;;;;;;;;;;5002167;28;20050;-83
2021/08/05 12:20:06;;;;;;;2.45;1.00;;;;;;;;;;5001584;28;20051;-83
2021/08/05 12:22:34;;;;;;;2.90;1.27;;;;;;;;;;5001522;28;20043;-82
2021/08/05 12:25:04;;;;;;;1.63;0.80;;;;;;;;;;5003033;28;20068;-84
2021/08/05 12:27:32;;;;;;;2.78;0.95;;;;;;;;;;5015910;28;20134;-84
2021/08/05 12:30:07;;;;;;;2.33;1.00;;;;;;;;;;5001028;28;20081;-83
2021/08/05 12:32:36;;;;;;;2.35;1.17;;;;;;;;;;5000573;28;20050;-83
2021/08/05 12:35:03;;;;;;;4.68;1.30;;;;;;;;;;5002027;28;20054;-83
2021/08/05 12:37:30;;;;;;;4.15;1.33;;;;;;;;;;5000023;28;20049;-83
2021/08/05 12:40:08;;;;;;;5.60;1.30;;;;;;;;;;5001743;28;20046;-82
2021/08/05 12:42:36;;;;;;;2.00;1.02;;;;;;;;;;4999991;28;20046;-83
2021/08/05 12:45:03;;;;;;;2.80;0.77;;;;;;;;;;5001120;28;20051;-83
2021/08/05 12:47:29;;;;;;;2.88;1.15;;;;;;;;;;4999350;28;20042;-83
2021/08/05 12:49:56;;;;;;;1.83;1.10;;;;;;;;;;4999180;28;20046;-83
2021/08/05 12:52:23;;;;;;;2.42;1.00;;;;;;;;;;5000111;28;20514;-84
2021/08/05 12:54:57;;;;;;;1.25;0.90;;;;;;;;;;4997270;28;20051;-83
2021/08/05 12:57:23;;;;;;;1.65;0.90;;;;;;;;;;4997540;28;20049;-83
2021/08/05 12:59:56;;;;;;;2.30;1.13;;;;;;;;;;4998663;28;20050;-83
2021/08/05 13:02:23;;;;;;;3.47;1.10;;;;;;;;;;4988454;28;20042;-83
2021/08/05 13:04:50;;;;;;;1.73;0.75;;;;;;;;;;4997190;28;20121;-83
2021/08/05 13:07:18;;;;;;;1.63;1.00;;;;;;;;;;4988521;28;20043;-83
2021/08/05 13:09:52;;;;;;;1.45;0.98;;;;;;;;;;4997110;28;20495;-83
2021/08/05 13:12:25;;;;;;;2.95;1.20;;;;;;;;;;4996950;28;20057;-84
2021/08/05 13:14:54;;;;;;;1.25;0.90;;;;;;;;;;4996328;28;20097;-82
2021/08/05 13:17:21;;;;;;;3.15;1.08;;;;;;;;;;4997759;28;20050;-84
2021/08/05 13:19:53;;;;;;;1.73;1.00;;;;;;;;;;4995289;28;20601;-84
2021/08/05 13:22:20;;;;;;;4.93;1.38;;;;;;;;;;4995715;28;20043;-84
2021/08/05 13:24:57;;;;;;;2.45;1.00;;;;;;;;;;4994702;28;20503;-83
2021/08/05 13:27:24;;;;;;;3.00;1.13;;;;;;;;;;4986900;28;20491;-84
2021/08/05 13:29:52;;;;;;;4.57;0.90;;;;;;;;;;4997628;28;20077;-86
2021/08/05 13:32:21;;;;;;;2.70;0.88;;;;;;;;;;4997711;28;20465;-84
2021/08/05 13:34:58;;;;;;;2.55;1.00;;;;;;;;;;5001014;28;20046;-84
2021/08/05 13:37:25;;;;;;;4.47;1.10;;;;;;;;;;4995798;28;20046;-83
2021/08/05 13:39:53;;;;;;;3.28;0.85;;;;;;;;;;4996369;28;20054;-84
2021/08/05 13:42:20;;;;;;;7.45;1.35;;;;;;;;;;4997944;28;20418;-84
2021/08/05 13:44:47;;;;;;;6.53;1.48;;;;;;;;;;4997909;28;20046;-84
2021/08/05 13:47:14;;;;;;;4.38;0.82;;;;;;;;;;4996245;28;20046;-83
2021/08/05 13:49:42;;;;;;;3.38;1.20;;;;;;;;;;4997259;28;20058;-82
2021/08/05 13:52:10;;;;;;;14.77;2.70;;;;;;;;;;4995994;28;20045;-82
2021/08/05 13:54:37;;;;;;;7.75;1.27;;;;;;;;;;4996038;28;20067;-83
2021/08/05 13:57:05;;;;;;;4.07;1.13;;;;;;;;;;4996110;28;20046;-84
2021/08/05 13:59:32;;;;;;;3.10;1.00;;;;;;;;;;4996439;28;20110;-84
2021/08/05 14:01:59;;;;;;;2.22;0.80;;;;;;;;;;4995504;28;20084;-83
2021/08/05 14:04:27;;;;;;;3.05;0.90;;;;;;;;;;4996597;28;20065;-83
2021/08/05 14:06:55;;;;;;;3.70;0.93;;;;;;;;;;4995507;28;20053;-82
2021/08/05 14:09:21;;;;;;;2.78;1.00;;;;;;;;;;4977178;28;20046;-83
2021/08/05 14:11:48;;;;;;;1.38;0.80;;;;;;;;;;4997283;28;20046;-84
2021/08/05 14:14:14;;;;;;;1.60;0.88;;;;;;;;;;4995332;28;20046;-82
2021/08/05 14:16:44;;;;;;;4.68;0.90;;;;;;;;;;4996014;28;20046;-83
2021/08/05 14:19:12;;;;;;;5.90;1.20;;;;;;;;;;4995827;28;20047;-83
2021/08/05 14:21:38;;;;;;;1.77;0.80;;;;;;;;;;4995423;28;20047;-83
2021/08/05 14:24:06;;;;;;;16.70;1.92;;;;;;;;;;4994356;28;20047;-82
2021/08/05 14:26:33;;;;;;;91.95;5.47;;;;;;;;;;4994900;28;20061;-82
2021/08/05 14:28:59;;;;;;;11.07;1.40;;;;;;;;;;4994045;28;20046;-82
2021/08/05 14:31:26;;;;;;;0.90;0.77;;;;;;;;;;4994467;28;20057;-84
2021/08/05 14:33:52;;;;;;;3.92;0.80;;;;;;;;;;4995258;28;20047;-83
2021/08/05 14:36:20;;;;;;;3.17;0.75;;;;;;;;;;4994567;28;20388;-83
2021/08/05 14:38:47;;;;;;;4.18;0.80;;;;;;;;;;4995011;28;20050;-83
2021/08/05 14:41:14;;;;;;;2.55;0.60;;;;;;;;;;4994733;28;20509;-84
2021/08/05 14:43:41;;;;;;;2.70;0.70;;;;;;;;;;4976562;28;20058;-85
2021/08/05 14:46:08;;;;;;;2.45;0.73;;;;;;;;;;4988244;28;20492;-84
2021/08/05 14:48:34;;;;;;;1.35;0.80;;;;;;;;;;4996848;28;20380;-83
2021/08/05 14:51:02;;;;;;;1.40;0.77;;;;;;;;;;4997671;28;20400;-86